This is the latest recevied weather packets stored in our database for station/object HS1WDC-1. If no packets are shown the sender has not sent any weather packets the latest 10 day(s).
| Time | Temp. | Humidity | Pressure | Rain* | Wind** | Luminosity | Snow |
|---|---|---|---|---|---|---|---|
| 1778040125 | 40° C | 42% | 1008 hPa | - | - | 0 W/m² | - |
| 1778039200 | 38.89° C | 43% | 1008 hPa | - | - | 0 W/m² | - |
| 1778038276 | 39.44° C | 43% | 1009 hPa | - | - | 0 W/m² | - |
| 1778037352 | 38.89° C | 44% | 1009 hPa | - | - | 0 W/m² | - |
| 1778036427 | 38.33° C | 45% | 1009 hPa | - | - | 0 W/m² | - |
| 1778035503 | 38.33° C | 47% | 1009 hPa | - | - | 0 W/m² | - |
| 1778034579 | 37.22° C | 50% | 1009 hPa | - | - | 0 W/m² | - |
| 1778033654 | 37.22° C | 50% | 1009 hPa | - | - | 0 W/m² | - |
| 1778032730 | 37.22° C | 52% | 1009 hPa | - | - | 0 W/m² | - |
| 1778030881 | 36.11° C | 54% | 1009 hPa | - | - | 0 W/m² | - |
| 1778027184 | 35° C | 57% | 1008 hPa | - | - | 0 W/m² | - |
| 1778026259 | 34.44° C | 58% | 1008 hPa | - | - | 0 W/m² | - |
| 1778020713 | 33.89° C | 58% | 1007 hPa | - | - | 0 W/m² | - |
| 1778019789 | 33.33° C | 59% | 1007 hPa | - | - | 0 W/m² | - |
| 1778018865 | 33.89° C | 58% | 1007 hPa | - | - | 0 W/m² | - |
| 1778017941 | 33.89° C | 58% | 1007 hPa | - | - | 0 W/m² | - |
| 1778017016 | 33.89° C | 57% | 1007 hPa | - | - | 0 W/m² | - |
| 1778016092 | 33.33° C | 59% | 1007 hPa | - | - | 0 W/m² | - |
| 1778011470 | 33.89° C | 56% | 1007 hPa | - | - | 0 W/m² | - |
| 1778009596 | 33.89° C | 56% | 1007 hPa | - | - | 0 W/m² | - |
| 1778008671 | 33.89° C | 56% | 1007 hPa | - | - | 0 W/m² | - |
| 1778005899 | 34.44° C | 53% | 1007 hPa | - | - | 0 W/m² | - |
| 1778002201 | 35° C | 50% | 1007 hPa | - | - | 0 W/m² | - |
| 1778001277 | 35° C | 50% | 1008 hPa | - | - | 0 W/m² | - |
| 1778000353 | 35° C | 48% | 1008 hPa | - | - | 0 W/m² | - |
* Rain since midnight (hover to see other rain measurements)
** Current wind speed in m/s (hover to see current wind gust speed)